Time;durP1;ratioP1;P1;durP2;ratioP2;P2;SDS_P1;SDS_P2;PMS_P1;PMS_P2;Temp;Humidity;BMP_temperature;BMP_pressure;BME280_temperature;BME280_humidity;BME280_pressure;Samples;Min_cycle;Max_cycle;Signal;HPM_P1;HPM_P2
2021/10/19 00:01:40;;;;;;;0.60;0.60;;;8.80;99.90;;;;;;5013488;28;20467;-76
2021/10/19 00:04:07;;;;;;;0.60;0.60;;;8.80;99.90;;;;;;5013281;28;20437;-77
2021/10/19 00:06:33;;;;;;;0.77;0.60;;;8.80;99.90;;;;;;5013548;28;20455;-77
2021/10/19 00:09:00;;;;;;;1.77;0.47;;;8.90;99.90;;;;;;5013082;28;21014;-77
2021/10/19 00:11:27;;;;;;;0.40;0.40;;;8.80;99.90;;;;;;5013093;28;20991;-78
2021/10/19 00:13:55;;;;;;;0.50;0.50;;;8.90;99.90;;;;;;5013415;28;20468;-77
2021/10/19 00:16:22;;;;;;;0.60;0.60;;;8.90;99.90;;;;;;5013410;28;20452;-77
2021/10/19 00:18:48;;;;;;;1.40;1.30;;;8.90;99.90;;;;;;5013427;28;20450;-77
2021/10/19 00:21:15;;;;;;;5.57;0.70;;;8.90;99.90;;;;;;5012984;28;20501;-77
2021/10/19 00:23:42;;;;;;;1.33;0.60;;;8.90;99.90;;;;;;5013031;28;20444;-77
2021/10/19 00:26:09;;;;;;;0.80;0.70;;;8.90;99.90;;;;;;5013318;28;20463;-77
2021/10/19 00:28:36;;;;;;;0.63;0.60;;;8.90;99.90;;;;;;5012925;28;20947;-77
2021/10/19 00:31:04;;;;;;;0.40;0.40;;;8.90;99.90;;;;;;5012958;28;21020;-77
2021/10/19 00:33:31;;;;;;;0.80;0.53;;;8.90;99.90;;;;;;5012930;28;20831;-77
2021/10/19 00:35:58;;;;;;;0.70;0.50;;;8.90;99.90;;;;;;5013183;28;20534;-77
2021/10/19 00:38:25;;;;;;;0.90;0.90;;;8.90;99.90;;;;;;5013219;28;20451;-77
2021/10/19 00:40:51;;;;;;;1.83;0.87;;;8.90;99.90;;;;;;5013090;28;20447;-77
2021/10/19 00:43:18;;;;;;;0.47;0.43;;;9.00;99.90;;;;;;5016528;28;20526;-77
2021/10/19 00:45:45;;;;;;;0.40;0.40;;;9.00;99.90;;;;;;5016921;28;20448;-77
2021/10/19 00:48:16;;;;;;;0.50;0.50;;;9.00;99.90;;;;;;5016630;28;20471;-77
2021/10/19 00:50:43;;;;;;;0.40;0.33;;;9.00;99.90;;;;;;5016485;28;20848;-76
2021/10/19 00:53:11;;;;;;;1.37;1.10;;;9.00;99.90;;;;;;5016482;28;20468;-77
2021/10/19 00:55:38;;;;;;;7.30;0.70;;;9.00;99.90;;;;;;5016735;28;20447;-76
2021/10/19 00:58:06;;;;;;;0.67;0.67;;;9.00;99.90;;;;;;5016649;28;20456;-76
2021/10/19 01:00:33;;;;;;;0.77;0.60;;;9.00;99.90;;;;;;5016634;28;20828;-76
2021/10/19 01:03:00;;;;;;;1.07;0.50;;;9.10;99.90;;;;;;5016531;28;20590;-78
2021/10/19 01:05:28;;;;;;;1.40;0.40;;;9.10;99.90;;;;;;5016562;28;20447;-76
2021/10/19 01:07:55;;;;;;;1.33;0.77;;;9.10;99.90;;;;;;5016512;28;20447;-76
2021/10/19 01:10:22;;;;;;;0.50;0.50;;;9.10;99.90;;;;;;5016354;28;20483;-77
2021/10/19 01:12:50;;;;;;;0.63;0.63;;;9.10;99.90;;;;;;5016163;28;20458;-77
2021/10/19 01:15:18;;;;;;;0.50;0.40;;;9.10;99.90;;;;;;5016354;28;20447;-77
2021/10/19 01:17:46;;;;;;;0.50;0.50;;;9.10;99.90;;;;;;5016046;28;20833;-76
2021/10/19 01:20:22;;;;;;;0.70;0.70;;;9.10;99.90;;;;;;5015939;28;20442;-76
2021/10/19 01:22:49;;;;;;;0.40;0.40;;;9.10;99.90;;;;;;5016225;28;20471;-76
2021/10/19 01:25:18;;;;;;;0.70;0.50;;;9.10;99.90;;;;;;5016189;28;20451;-76
2021/10/19 01:27:46;;;;;;;1.67;0.70;;;9.10;99.90;;;;;;5016121;28;20459;-76
2021/10/19 01:30:13;;;;;;;0.50;0.40;;;9.10;99.90;;;;;;5015995;28;20518;-76
2021/10/19 01:32:40;;;;;;;1.00;1.00;;;9.20;99.90;;;;;;5015955;28;20478;-76
2021/10/19 01:35:08;;;;;;;0.57;0.57;;;9.20;99.90;;;;;;5015769;28;20436;-77
2021/10/19 01:37:36;;;;;;;0.50;0.50;;;9.20;99.90;;;;;;5015940;28;20443;-76
2021/10/19 01:40:04;;;;;;;0.40;0.40;;;9.30;99.90;;;;;;5015919;28;20440;-76
2021/10/19 01:42:33;;;;;;;0.97;0.60;;;9.30;99.90;;;;;;5015783;28;20475;-77
2021/10/19 01:45:00;;;;;;;0.87;0.63;;;9.30;99.90;;;;;;5015539;28;20446;-76
2021/10/19 01:47:27;;;;;;;0.50;0.50;;;9.30;99.90;;;;;;5015725;28;20531;-76
2021/10/19 01:49:54;;;;;;;2.97;0.67;;;9.40;99.90;;;;;;5015239;28;20506;-76
2021/10/19 01:52:21;;;;;;;0.93;0.40;;;9.40;99.90;;;;;;5015682;28;20475;-76
2021/10/19 01:54:49;;;;;;;4.10;1.23;;;9.30;99.90;;;;;;5014664;28;20459;-76
2021/10/19 01:57:15;;;;;;;0.40;0.40;;;9.30;99.90;;;;;;5015288;28;20925;-76
2021/10/19 01:59:42;;;;;;;0.60;0.50;;;9.30;99.90;;;;;;5015545;28;20452;-77
2021/10/19 02:02:09;;;;;;;0.30;0.30;;;9.30;99.90;;;;;;5015137;28;20476;-76
2021/10/19 02:04:35;;;;;;;0.30;0.30;;;9.30;99.90;;;;;;5015466;28;20447;-76
2021/10/19 02:07:02;;;;;;;0.40;0.40;;;9.40;99.90;;;;;;5015385;28;20446;-77
2021/10/19 02:09:29;;;;;;;0.47;0.47;;;9.40;99.90;;;;;;5015000;28;20475;-77
2021/10/19 02:11:57;;;;;;;0.70;0.70;;;9.40;99.90;;;;;;5015223;28;20474;-76
2021/10/19 02:14:24;;;;;;;0.70;0.70;;;9.50;99.90;;;;;;5015288;28;20439;-77
2021/10/19 02:16:50;;;;;;;1.77;0.80;;;9.50;99.90;;;;;;5015183;28;20462;-77
2021/10/19 02:19:17;;;;;;;0.73;0.73;;;9.50;99.90;;;;;;5015586;28;20444;-77
2021/10/19 02:21:44;;;;;;;1.53;0.50;;;9.50;99.90;;;;;;5015101;28;20498;-77
2021/10/19 02:24:11;;;;;;;2.83;0.67;;;9.50;99.90;;;;;;5015041;28;20460;-77
2021/10/19 02:26:38;;;;;;;1.00;0.90;;;9.50;99.90;;;;;;5015031;28;20447;-78
2021/10/19 02:29:06;;;;;;;0.40;0.40;;;9.50;99.90;;;;;;5014705;28;20451;-77
2021/10/19 02:31:32;;;;;;;0.40;0.40;;;9.50;99.90;;;;;;5014782;28;20499;-77
2021/10/19 02:33:59;;;;;;;0.67;0.67;;;9.50;99.90;;;;;;5014906;28;20446;-77
2021/10/19 02:36:26;;;;;;;0.60;0.60;;;9.60;99.90;;;;;;5014523;28;20967;-77
2021/10/19 02:38:53;;;;;;;1.33;1.33;;;9.60;99.90;;;;;;5014791;28;20490;-77
2021/10/19 02:41:20;;;;;;;0.40;0.40;;;9.60;99.90;;;;;;5014645;28;20471;-77
2021/10/19 02:43:46;;;;;;;2.23;0.50;;;9.60;99.90;;;;;;5014476;28;20439;-81
2021/10/19 02:46:14;;;;;;;2.10;1.77;;;9.60;99.90;;;;;;5014292;28;20460;-81
2021/10/19 02:48:42;;;;;;;0.70;0.40;;;9.70;99.90;;;;;;5014262;28;20562;-81
2021/10/19 02:51:09;;;;;;;2.53;1.30;;;9.70;99.90;;;;;;5014569;28;20562;-81
2021/10/19 02:53:36;;;;;;;0.60;0.60;;;9.70;99.90;;;;;;5014523;28;20816;-82
2021/10/19 02:56:02;;;;;;;1.17;0.57;;;9.70;99.90;;;;;;5014472;28;20451;-82
2021/10/19 02:58:29;;;;;;;0.70;0.70;;;9.60;99.90;;;;;;5014385;28;20447;-81
2021/10/19 03:00:56;;;;;;;0.50;0.40;;;9.70;99.90;;;;;;5014305;28;20447;-83
2021/10/19 03:03:24;;;;;;;1.10;0.57;;;9.70;99.90;;;;;;5014363;28;20448;-83
2021/10/19 03:05:51;;;;;;;2.30;0.40;;;9.70;99.90;;;;;;5014171;28;20455;-82
2021/10/19 03:08:17;;;;;;;0.60;0.57;;;9.80;99.90;;;;;;5013983;28;20443;-82
2021/10/19 03:10:44;;;;;;;1.83;0.30;;;9.70;99.90;;;;;;5014052;28;20483;-82
2021/10/19 03:13:11;;;;;;;0.40;0.40;;;9.80;99.90;;;;;;5014085;28;20475;-82
2021/10/19 03:15:37;;;;;;;0.50;0.50;;;9.80;99.90;;;;;;5014172;28;20452;-82
2021/10/19 03:18:04;;;;;;;0.40;0.40;;;9.90;99.90;;;;;;5013838;28;20443;-81
2021/10/19 03:20:32;;;;;;;0.40;0.40;;;9.90;99.90;;;;;;5014088;28;20451;-83
2021/10/19 03:22:59;;;;;;;2.10;0.70;;;9.90;99.90;;;;;;5014018;28;20472;-82
2021/10/19 03:25:26;;;;;;;0.53;0.50;;;9.90;99.90;;;;;;5014017;28;20458;-82
2021/10/19 03:27:53;;;;;;;1.00;0.60;;;9.90;99.90;;;;;;5013981;28;20459;-82
2021/10/19 03:30:20;;;;;;;0.60;0.60;;;9.90;99.90;;;;;;5013891;28;20486;-82
2021/10/19 03:32:46;;;;;;;1.07;0.50;;;9.90;99.90;;;;;;5013965;28;20829;-81
2021/10/19 03:35:13;;;;;;;0.60;0.60;;;10.00;99.90;;;;;;5013914;28;20447;-82
2021/10/19 03:37:41;;;;;;;0.30;0.30;;;10.00;99.90;;;;;;5013598;28;20797;-82
2021/10/19 03:40:09;;;;;;;0.53;0.47;;;10.00;99.90;;;;;;5013892;28;20439;-81
2021/10/19 03:42:38;;;;;;;1.10;0.70;;;10.00;99.90;;;;;;5013704;28;20470;-82
2021/10/19 03:45:06;;;;;;;0.50;0.47;;;10.10;99.90;;;;;;5013522;28;20442;-81
2021/10/19 03:47:32;;;;;;;1.10;0.70;;;10.10;99.90;;;;;;5013443;28;20935;-82
2021/10/19 03:49:59;;;;;;;0.93;0.40;;;10.10;99.90;;;;;;5013265;28;20495;-82
2021/10/19 03:52:26;;;;;;;0.40;0.40;;;10.10;99.90;;;;;;5013372;28;20467;-81
2021/10/19 03:54:54;;;;;;;1.07;0.60;;;10.10;99.90;;;;;;5013663;28;20448;-82
2021/10/19 03:57:21;;;;;;;0.40;0.40;;;10.10;99.90;;;;;;5013325;28;20447;-81
2021/10/19 03:59:47;;;;;;;0.63;0.50;;;10.10;99.90;;;;;;5013596;28;20455;-82
2021/10/19 04:02:14;;;;;;;0.70;0.60;;;10.10;99.90;;;;;;5013531;28;20479;-81
2021/10/19 04:04:41;;;;;;;0.70;0.40;;;10.10;99.90;;;;;;5013549;28;20451;-81
2021/10/19 04:07:08;;;;;;;0.87;0.40;;;10.10;99.90;;;;;;5013529;28;20463;-81
2021/10/19 04:09:35;;;;;;;0.87;0.80;;;10.10;99.90;;;;;;5013497;28;20451;-82
2021/10/19 04:12:03;;;;;;;0.80;0.50;;;10.10;99.90;;;;;;5013045;28;20479;-82
2021/10/19 04:14:29;;;;;;;2.57;0.77;;;10.10;99.90;;;;;;5013463;28;20452;-81
2021/10/19 04:16:56;;;;;;;2.40;0.70;;;10.10;99.90;;;;;;5014471;28;20826;-82
2021/10/19 04:19:23;;;;;;;7.70;1.10;;;10.20;99.90;;;;;;5017102;28;20451;-82
2021/10/19 04:21:50;;;;;;;1.03;0.90;;;10.20;99.90;;;;;;5017314;28;20490;-82
2021/10/19 04:24:17;;;;;;;1.23;1.23;;;10.20;99.90;;;;;;5017372;28;20447;-84
2021/10/19 04:26:44;;;;;;;0.40;0.40;;;10.20;99.90;;;;;;5016947;28;20951;-80
2021/10/19 04:29:12;;;;;;;1.77;0.63;;;10.20;99.90;;;;;;5017233;28;20455;-81
2021/10/19 04:31:39;;;;;;;1.27;0.60;;;10.20;99.90;;;;;;5017078;28;20483;-81
2021/10/19 04:34:07;;;;;;;1.17;0.97;;;10.20;99.90;;;;;;5016916;28;20440;-82
2021/10/19 04:36:34;;;;;;;3.10;0.93;;;10.20;99.90;;;;;;5016907;28;20456;-82
2021/10/19 04:39:01;;;;;;;0.33;0.33;;;10.20;99.90;;;;;;5016957;28;20440;-82
2021/10/19 04:41:28;;;;;;;1.37;1.27;;;10.30;99.90;;;;;;5016935;28;20468;-82
2021/10/19 04:43:55;;;;;;;0.77;0.60;;;10.30;99.90;;;;;;5017029;28;20460;-82
2021/10/19 04:46:24;;;;;;;1.13;0.70;;;10.30;99.90;;;;;;5016632;28;20943;-82
2021/10/19 04:48:50;;;;;;;1.77;0.50;;;10.30;99.90;;;;;;5016563;28;20485;-82
2021/10/19 04:51:17;;;;;;;0.90;0.63;;;10.30;99.90;;;;;;5016707;28;20499;-81
2021/10/19 04:53:44;;;;;;;1.70;0.50;;;10.30;99.90;;;;;;5016811;28;20462;-82
2021/10/19 04:56:11;;;;;;;0.87;0.77;;;10.30;99.90;;;;;;5016738;28;20443;-81
2021/10/19 04:58:37;;;;;;;0.70;0.70;;;10.40;99.90;;;;;;5016440;28;20451;-81
2021/10/19 05:01:04;;;;;;;0.70;0.70;;;10.40;99.90;;;;;;5016617;28;20447;-82
2021/10/19 05:03:32;;;;;;;3.80;2.37;;;10.40;99.90;;;;;;5016321;28;20963;-82
2021/10/19 05:05:59;;;;;;;3.80;0.90;;;10.40;99.90;;;;;;5016250;28;20966;-81
2021/10/19 05:08:26;;;;;;;1.00;1.00;;;10.40;99.90;;;;;;5016154;28;20869;-82
2021/10/19 05:10:52;;;;;;;2.30;1.20;;;10.40;99.90;;;;;;5016298;28;20486;-82
2021/10/19 05:13:19;;;;;;;2.43;0.80;;;10.50;99.90;;;;;;5016134;28;20427;-82
2021/10/19 05:15:46;;;;;;;1.63;1.37;;;10.40;99.90;;;;;;5016339;28;20462;-83
2021/10/19 05:18:12;;;;;;;1.70;0.80;;;10.40;99.90;;;;;;5016079;28;20436;-81
2021/10/19 05:20:41;;;;;;;0.80;0.80;;;10.40;99.90;;;;;;5016282;28;20468;-81
2021/10/19 05:23:07;;;;;;;1.40;1.10;;;10.40;99.90;;;;;;5015992;28;20474;-82
2021/10/19 05:25:34;;;;;;;0.60;0.47;;;10.30;99.90;;;;;;5016859;28;20455;-81
2021/10/19 05:28:01;;;;;;;1.27;0.60;;;10.20;99.90;;;;;;5016137;28;20444;-81
2021/10/19 05:30:27;;;;;;;0.80;0.80;;;10.20;99.90;;;;;;5016001;28;20494;-83
2021/10/19 05:32:54;;;;;;;1.00;0.80;;;10.10;99.90;;;;;;5015770;28;20896;-81
2021/10/19 05:35:21;;;;;;;0.80;0.80;;;10.00;99.90;;;;;;5016018;28;20455;-80
2021/10/19 05:37:49;;;;;;;1.00;0.80;;;10.00;99.90;;;;;;5015967;28;20455;-81
2021/10/19 05:40:16;;;;;;;1.33;0.77;;;9.90;99.90;;;;;;5015980;28;20451;-82
2021/10/19 05:42:43;;;;;;;0.67;0.53;;;9.90;99.90;;;;;;5015505;28;20850;-81
2021/10/19 05:45:10;;;;;;;1.53;0.70;;;9.90;99.90;;;;;;5015910;28;20789;-81
2021/10/19 05:47:37;;;;;;;0.40;0.40;;;9.80;99.90;;;;;;5015796;28;20451;-82
2021/10/19 05:50:04;;;;;;;0.87;0.87;;;9.80;99.90;;;;;;5015364;28;20482;-82
2021/10/19 05:52:31;;;;;;;2.23;0.70;;;9.80;99.90;;;;;;5015612;28;20494;-81
2021/10/19 05:54:59;;;;;;;0.67;0.67;;;9.80;99.90;;;;;;5015432;28;20432;-81
2021/10/19 05:57:25;;;;;;;5.83;0.90;;;9.80;99.90;;;;;;5015614;28;20448;-82
2021/10/19 05:59:52;;;;;;;1.50;0.80;;;9.90;99.90;;;;;;5015584;28;20455;-82
2021/10/19 06:02:19;;;;;;;0.60;0.53;;;9.90;99.90;;;;;;5015464;28;20487;-82
2021/10/19 06:04:46;;;;;;;0.60;0.60;;;9.90;99.90;;;;;;5015532;28;20455;-81
2021/10/19 06:07:12;;;;;;;2.20;0.83;;;9.90;99.90;;;;;;5015411;28;20439;-81
2021/10/19 06:09:39;;;;;;;1.30;1.20;;;10.00;99.90;;;;;;5015158;28;20436;-81
2021/10/19 06:12:08;;;;;;;0.60;0.60;;;10.00;99.90;;;;;;5015210;28;20495;-82
2021/10/19 06:14:35;;;;;;;0.60;0.50;;;10.00;99.90;;;;;;5015329;28;20543;-81
2021/10/19 06:17:01;;;;;;;0.40;0.40;;;10.00;99.90;;;;;;5014995;28;20443;-81
2021/10/19 06:19:28;;;;;;;0.50;0.50;;;10.10;99.90;;;;;;5015167;28;20456;-80
2021/10/19 06:21:55;;;;;;;0.77;0.50;;;10.00;99.90;;;;;;5015086;28;20819;-81
2021/10/19 06:24:21;;;;;;;0.60;0.40;;;10.10;99.90;;;;;;5015119;28;20456;-80
2021/10/19 06:26:48;;;;;;;1.50;0.90;;;10.10;99.90;;;;;;5015045;28;20455;-81
2021/10/19 06:29:16;;;;;;;0.40;0.40;;;10.10;99.90;;;;;;5014978;28;20455;-82
2021/10/19 06:31:43;;;;;;;0.60;0.60;;;10.10;99.90;;;;;;5014833;28;20561;-81
2021/10/19 06:34:10;;;;;;;0.30;0.30;;;10.10;99.90;;;;;;5014970;28;20452;-81
2021/10/19 06:36:37;;;;;;;0.40;0.40;;;10.20;99.90;;;;;;5014870;28;20452;-81
2021/10/19 06:39:04;;;;;;;0.90;0.80;;;10.20;99.90;;;;;;5014467;28;20447;-81
2021/10/19 06:41:31;;;;;;;0.43;0.43;;;10.20;99.90;;;;;;5014660;28;20470;-81
2021/10/19 06:43:58;;;;;;;1.80;0.50;;;10.20;99.90;;;;;;5014696;28;20460;-81
2021/10/19 06:46:26;;;;;;;0.50;0.50;;;10.20;99.90;;;;;;5014700;28;20428;-79
2021/10/19 06:48:53;;;;;;;0.50;0.50;;;10.30;99.90;;;;;;5014378;28;20487;-81
2021/10/19 06:51:20;;;;;;;0.47;0.47;;;10.30;99.90;;;;;;5014428;28;20491;-81
2021/10/19 06:53:46;;;;;;;1.23;0.80;;;10.30;99.90;;;;;;5014610;28;20458;-82
2021/10/19 06:56:13;;;;;;;0.40;0.40;;;10.40;99.90;;;;;;5014464;28;20458;-83
2021/10/19 06:58:41;;;;;;;1.27;1.17;;;10.40;99.90;;;;;;5014148;28;20532;-81
2021/10/19 07:01:09;;;;;;;2.63;0.50;;;10.40;99.90;;;;;;5014297;28;20440;-82
2021/10/19 07:03:37;;;;;;;1.00;0.60;;;10.50;99.90;;;;;;5014302;28;20457;-78
2021/10/19 07:06:05;;;;;;;0.70;0.50;;;10.50;99.90;;;;;;5014230;28;20452;-81
2021/10/19 07:08:33;;;;;;;3.10;0.63;;;10.50;99.90;;;;;;5014329;28;20440;-81
2021/10/19 07:11:00;;;;;;;0.93;0.60;;;10.50;99.90;;;;;;5013817;28;20903;-82
2021/10/19 07:13:26;;;;;;;0.50;0.50;;;10.50;99.90;;;;;;5014164;28;20435;-79
2021/10/19 07:15:54;;;;;;;0.50;0.50;;;10.50;99.90;;;;;;5014043;28;20436;-80
2021/10/19 07:18:22;;;;;;;0.43;0.40;;;10.50;99.90;;;;;;5014065;28;20428;-79
2021/10/19 07:20:51;;;;;;;0.53;0.53;;;10.50;99.90;;;;;;5014012;28;20462;-78
2021/10/19 07:23:19;;;;;;;0.80;0.40;;;10.50;99.90;;;;;;5014538;28;20438;-79
2021/10/19 07:25:47;;;;;;;0.77;0.50;;;10.60;99.90;;;;;;5014087;28;20432;-79
2021/10/19 07:28:14;;;;;;;0.40;0.40;;;10.60;99.90;;;;;;5013960;28;20463;-79
2021/10/19 07:30:41;;;;;;;0.50;0.50;;;10.60;99.90;;;;;;5014615;28;20866;-78
2021/10/19 07:33:08;;;;;;;0.40;0.40;;;10.60;99.90;;;;;;5013762;28;20483;-79
2021/10/19 07:35:34;;;;;;;0.43;0.40;;;10.70;99.90;;;;;;5013648;28;21012;-79
2021/10/19 07:38:02;;;;;;;0.50;0.30;;;10.70;99.90;;;;;;5013874;28;20443;-81
2021/10/19 07:40:29;;;;;;;0.30;0.30;;;10.80;99.90;;;;;;5013873;28;20448;-82
2021/10/19 07:42:57;;;;;;;0.40;0.40;;;10.80;99.90;;;;;;5013712;28;20468;-81
2021/10/19 07:45:24;;;;;;;0.60;0.60;;;10.90;99.90;;;;;;5013513;28;20482;-81
2021/10/19 07:47:51;;;;;;;0.60;0.60;;;10.90;99.90;;;;;;5013345;28;20528;-80
2021/10/19 07:50:19;;;;;;;0.90;0.50;;;10.90;99.90;;;;;;5013488;28;20417;-81
2021/10/19 07:52:48;;;;;;;0.40;0.40;;;11.00;99.90;;;;;;5012443;28;20491;-81
2021/10/19 07:55:17;;;;;;;1.27;0.40;;;11.00;99.90;;;;;;5013303;28;20439;-79
2021/10/19 07:57:45;;;;;;;0.40;0.40;;;11.00;99.90;;;;;;5013491;28;20451;-80
2021/10/19 08:00:13;;;;;;;2.60;0.63;;;11.00;99.90;;;;;;5013975;28;20451;-79
2021/10/19 08:02:42;;;;;;;1.57;0.97;;;11.00;99.90;;;;;;5013142;28;20470;-80
2021/10/19 08:05:12;;;;;;;0.93;0.80;;;11.00;99.90;;;;;;5013301;28;20514;-80
2021/10/19 08:07:40;;;;;;;0.63;0.40;;;11.00;99.90;;;;;;5013360;28;20495;-80
2021/10/19 08:10:07;;;;;;;0.60;0.50;;;11.00;99.90;;;;;;5013336;28;20463;-80
2021/10/19 08:12:35;;;;;;;0.50;0.40;;;11.10;99.90;;;;;;5012720;28;20963;-80
2021/10/19 08:15:02;;;;;;;2.50;0.40;;;11.10;99.90;;;;;;5013698;28;20486;-79
2021/10/19 08:17:29;;;;;;;0.40;0.30;;;11.10;99.90;;;;;;5013478;28;20451;-80
2021/10/19 08:19:59;;;;;;;0.40;0.30;;;11.20;99.90;;;;;;5013033;28;20448;-80
2021/10/19 08:22:26;;;;;;;0.50;0.50;;;11.20;99.90;;;;;;5013133;28;20558;-80
2021/10/19 08:24:53;;;;;;;0.40;0.40;;;11.20;99.90;;;;;;5013156;28;20447;-80
2021/10/19 08:27:19;;;;;;;0.80;0.50;;;11.30;99.90;;;;;;5012858;28;20452;-80
2021/10/19 08:29:48;;;;;;;3.33;0.50;;;11.30;99.90;;;;;;5013185;28;20471;-80
2021/10/19 08:32:14;;;;;;;0.40;0.40;;;11.30;99.90;;;;;;5013012;28;20535;-81
2021/10/19 08:34:41;;;;;;;0.83;0.60;;;11.30;99.90;;;;;;5013150;28;20456;-80
2021/10/19 08:37:08;;;;;;;0.30;0.30;;;11.30;99.90;;;;;;5013128;28;20451;-81
2021/10/19 08:39:35;;;;;;;0.67;0.40;;;11.30;99.90;;;;;;5012820;28;20444;-75
2021/10/19 08:42:01;;;;;;;0.97;0.97;;;11.40;99.90;;;;;;5013150;28;20543;-76
2021/10/19 08:44:28;;;;;;;0.50;0.50;;;11.40;99.90;;;;;;5013186;28;20447;-75
2021/10/19 08:46:57;;;;;;;0.40;0.40;;;11.40;99.90;;;;;;5013109;28;20447;-75
2021/10/19 08:49:24;;;;;;;0.60;0.60;;;11.50;99.90;;;;;;5012746;28;20533;-81
2021/10/19 08:51:51;;;;;;;0.60;0.50;;;11.50;99.90;;;;;;5012938;28;20495;-81
2021/10/19 08:54:17;;;;;;;2.13;0.40;;;11.50;99.90;;;;;;5012770;28;20934;-81
2021/10/19 08:56:44;;;;;;;0.60;0.50;;;11.60;99.90;;;;;;5013132;28;20432;-81
2021/10/19 08:59:12;;;;;;;1.17;0.70;;;11.60;99.90;;;;;;5012795;28;20916;-81
2021/10/19 09:01:41;;;;;;;2.53;0.60;;;11.60;99.90;;;;;;5013005;28;20468;-81
2021/10/19 09:04:11;;;;;;;0.77;0.77;;;11.60;99.90;;;;;;5015922;28;20471;-81
2021/10/19 09:06:39;;;;;;;1.27;0.60;;;11.70;99.90;;;;;;5016542;28;20444;-80
2021/10/19 09:09:08;;;;;;;0.73;0.60;;;11.60;99.90;;;;;;5016458;28;20447;-80
2021/10/19 09:11:39;;;;;;;2.97;1.70;;;11.70;99.90;;;;;;5016390;28;20486;-80
2021/10/19 09:14:07;;;;;;;0.60;0.57;;;11.70;99.90;;;;;;5016216;28;20937;-81
2021/10/19 09:16:41;;;;;;;1.83;0.60;;;11.70;99.90;;;;;;5016620;28;20416;-80
2021/10/19 09:19:09;;;;;;;1.43;1.03;;;11.70;99.90;;;;;;5016094;28;20935;-80
2021/10/19 09:21:36;;;;;;;1.30;0.70;;;11.70;99.90;;;;;;5015953;28;20479;-80
2021/10/19 09:24:17;;;;;;;0.70;0.70;;;11.80;99.90;;;;;;5016198;28;20466;-81
2021/10/19 09:26:50;;;;;;;0.63;0.50;;;11.80;99.90;;;;;;5016246;28;20432;-81
2021/10/19 09:29:17;;;;;;;0.80;0.80;;;11.90;99.90;;;;;;5016176;28;20489;-81
2021/10/19 09:31:44;;;;;;;0.93;0.40;;;11.90;99.90;;;;;;5016058;28;20498;-81
2021/10/19 09:34:13;;;;;;;0.70;0.70;;;12.00;99.90;;;;;;5016014;28;20451;-81
2021/10/19 09:36:41;;;;;;;0.80;0.47;;;12.00;99.90;;;;;;5015789;28;20927;-81
2021/10/19 09:39:08;;;;;;;0.70;0.70;;;12.10;99.90;;;;;;5016072;28;20442;-81
2021/10/19 09:41:42;;;;;;;2.00;0.60;;;12.10;99.90;;;;;;5015698;28;20451;-81
2021/10/19 09:44:14;;;;;;;0.70;0.70;;;12.20;99.90;;;;;;5015873;28;20423;-81
2021/10/19 09:46:42;;;;;;;1.07;0.50;;;12.20;99.90;;;;;;5015580;28;20803;-82
2021/10/19 09:49:09;;;;;;;1.10;1.10;;;12.20;99.90;;;;;;5015521;28;20518;-82
2021/10/19 09:51:38;;;;;;;0.70;0.70;;;12.20;99.90;;;;;;5015656;28;20550;-81
2021/10/19 09:54:08;;;;;;;0.73;0.40;;;12.20;99.90;;;;;;5015771;28;20531;-82
2021/10/19 09:56:36;;;;;;;0.60;0.37;;;12.10;99.90;;;;;;5015756;28;20428;-81
2021/10/19 09:59:03;;;;;;;0.50;0.40;;;12.00;99.90;;;;;;5015666;28;20459;-82
2021/10/19 10:01:30;;;;;;;0.37;0.33;;;12.00;99.90;;;;;;5015502;28;20470;-82
2021/10/19 10:03:57;;;;;;;0.97;0.97;;;12.00;99.90;;;;;;5015531;28;20435;-82
2021/10/19 10:06:24;;;;;;;0.40;0.40;;;12.00;99.90;;;;;;5015538;28;20438;-82
2021/10/19 10:08:53;;;;;;;0.60;0.60;;;12.00;99.90;;;;;;5016232;28;20459;-82
2021/10/19 10:11:21;;;;;;;0.30;0.30;;;12.00;99.90;;;;;;5015384;28;20838;-82
2021/10/19 10:13:58;;;;;;;0.40;0.33;;;12.10;99.90;;;;;;5014877;28;20471;-83
2021/10/19 10:16:25;;;;;;;1.43;0.83;;;12.10;99.90;;;;;;5015192;28;20431;-83
2021/10/19 10:18:53;;;;;;;3.30;0.50;;;12.10;99.90;;;;;;5015018;28;20931;-83
2021/10/19 10:21:21;;;;;;;0.50;0.43;;;12.20;99.90;;;;;;5014814;28;20986;-81
2021/10/19 10:24:02;;;;;;;0.40;0.40;;;12.20;99.90;;;;;;5015171;28;20432;-82
2021/10/19 10:26:31;;;;;;;0.73;0.40;;;12.20;99.90;;;;;;5015076;28;20435;-82
2021/10/19 10:29:09;;;;;;;1.33;0.83;;;12.30;99.90;;;;;;5014746;28;20924;-81
2021/10/19 10:31:46;;;;;;;0.70;0.50;;;12.40;99.90;;;;;;5014953;28;20471;-81
2021/10/19 10:34:14;;;;;;;0.40;0.40;;;12.40;99.90;;;;;;5014941;28;20454;-81
2021/10/19 10:36:43;;;;;;;0.90;0.40;;;12.50;99.90;;;;;;5015196;28;20432;-81
2021/10/19 10:39:12;;;;;;;0.30;0.30;;;12.60;99.90;;;;;;5014853;28;20424;-82
2021/10/19 10:41:40;;;;;;;0.40;0.40;;;12.70;99.90;;;;;;5014734;28;20459;-80
2021/10/19 10:44:09;;;;;;;1.83;1.13;;;12.70;99.90;;;;;;5014827;28;20428;-81
2021/10/19 10:46:36;;;;;;;0.53;0.50;;;12.80;99.90;;;;;;5015044;28;20436;-82
2021/10/19 10:49:03;;;;;;;0.50;0.40;;;12.80;99.90;;;;;;5014341;28;20488;-80
2021/10/19 10:51:31;;;;;;;0.63;0.40;;;12.80;99.90;;;;;;5014568;28;20472;-82
2021/10/19 10:53:59;;;;;;;0.47;0.40;;;12.80;99.90;;;;;;5014568;28;20472;-81
2021/10/19 10:56:28;;;;;;;0.60;0.30;;;12.80;99.90;;;;;;5014552;28;20440;-81
2021/10/19 10:58:55;;;;;;;0.40;0.40;;;12.90;99.90;;;;;;5014520;28;20447;-81
2021/10/19 11:01:59;;;;;;;0.30;0.30;;;13.10;99.90;;;;;;5014464;28;20467;-81
2021/10/19 11:04:26;;;;;;;0.40;0.40;;;13.20;99.90;;;;;;5014448;28;20435;-81
2021/10/19 11:06:53;;;;;;;1.13;0.50;;;13.50;99.90;;;;;;5014398;28;20432;-81
2021/10/19 11:09:19;;;;;;;0.50;0.50;;;13.60;99.90;;;;;;5014400;28;20436;-81
2021/10/19 11:11:48;;;;;;;1.80;0.50;;;13.70;99.90;;;;;;5014232;28;20475;-81
2021/10/19 11:14:16;;;;;;;0.40;0.30;;;13.90;99.90;;;;;;5014219;28;20471;-81
2021/10/19 11:16:45;;;;;;;0.50;0.40;;;14.00;99.90;;;;;;5013923;28;20903;-81
2021/10/19 11:19:19;;;;;;;1.80;0.50;;;14.00;99.90;;;;;;5013895;28;20903;-81
2021/10/19 11:21:50;;;;;;;0.60;0.60;;;14.00;99.90;;;;;;5014065;28;20475;-81
2021/10/19 11:24:17;;;;;;;1.27;0.70;;;14.00;99.90;;;;;;5014176;28;20523;-81
2021/10/19 11:26:44;;;;;;;0.70;0.47;;;14.00;99.90;;;;;;5013993;28;20439;-81
2021/10/19 11:29:12;;;;;;;0.50;0.50;;;13.90;99.90;;;;;;5014062;28;20443;-81
2021/10/19 11:31:39;;;;;;;0.43;0.40;;;13.90;99.90;;;;;;5013925;28;20470;-82
2021/10/19 11:34:07;;;;;;;0.50;0.50;;;13.80;99.90;;;;;;5013902;28;20472;-81
2021/10/19 11:36:34;;;;;;;0.93;0.93;;;13.70;99.90;;;;;;5013964;28;20447;-81
2021/10/19 11:39:05;;;;;;;0.40;0.40;;;13.70;99.90;;;;;;5013922;28;20436;-81
2021/10/19 11:41:32;;;;;;;0.63;0.30;;;13.70;99.90;;;;;;5013793;28;20509;-81
2021/10/19 11:44:02;;;;;;;0.57;0.50;;;13.70;99.90;;;;;;5013812;28;20436;-81
2021/10/19 11:46:31;;;;;;;0.47;0.47;;;13.70;99.90;;;;;;5013487;28;20947;-81
2021/10/19 11:49:03;;;;;;;0.60;0.60;;;13.60;99.90;;;;;;5013413;28;20485;-81
2021/10/19 11:51:30;;;;;;;1.43;0.60;;;13.60;99.90;;;;;;5013649;28;20467;-81
2021/10/19 11:53:59;;;;;;;0.60;0.60;;;13.60;99.90;;;;;;5013686;28;20471;-81
2021/10/19 11:56:27;;;;;;;0.70;0.70;;;13.60;99.90;;;;;;5013704;28;20522;-81
2021/10/19 11:58:55;;;;;;;0.50;0.43;;;13.60;99.90;;;;;;5013395;28;20907;-81
2021/10/19 12:01:24;;;;;;;0.60;0.60;;;13.70;99.90;;;;;;5013544;28;20463;-80
2021/10/19 12:04:00;;;;;;;0.70;0.53;;;13.70;99.90;;;;;;5013578;28;20459;-81
2021/10/19 12:06:28;;;;;;;0.93;0.50;;;13.70;99.90;;;;;;5013242;28;20447;-81
2021/10/19 12:08:56;;;;;;;0.40;0.40;;;13.70;99.90;;;;;;5013744;28;20428;-81
2021/10/19 12:11:24;;;;;;;0.40;0.40;;;13.70;99.90;;;;;;5013481;28;20478;-80
2021/10/19 12:13:54;;;;;;;0.80;0.60;;;13.70;99.90;;;;;;5013384;28;20471;-82
2021/10/19 12:16:25;;;;;;;0.70;0.67;;;13.70;99.90;;;;;;5013535;28;20434;-82
2021/10/19 12:18:54;;;;;;;0.80;0.60;;;13.70;99.90;;;;;;5013436;28;20467;-81
2021/10/19 12:21:23;;;;;;;0.43;0.43;;;13.70;99.90;;;;;;5013398;28;20464;-80
2021/10/19 12:23:50;;;;;;;1.43;0.60;;;13.70;99.90;;;;;;5013430;28;20440;-81
2021/10/19 12:26:19;;;;;;;0.53;0.43;;;13.70;99.90;;;;;;5013379;28;20455;-81
2021/10/19 12:28:50;;;;;;;0.43;0.40;;;13.70;99.90;;;;;;5013351;28;20440;-81
2021/10/19 12:31:17;;;;;;;0.57;0.50;;;13.70;99.90;;;;;;5013332;28;20472;-80
2021/10/19 12:33:44;;;;;;;2.37;0.80;;;13.70;99.90;;;;;;5013215;28;20477;-81
2021/10/19 12:36:11;;;;;;;0.70;0.70;;;13.80;99.90;;;;;;5013357;28;20471;-80
2021/10/19 12:38:41;;;;;;;2.90;0.97;;;13.90;99.90;;;;;;5015647;28;20428;-80
2021/10/19 12:41:11;;;;;;;1.00;0.63;;;13.90;99.90;;;;;;5016681;28;20439;-80
2021/10/19 12:43:39;;;;;;;0.40;0.40;;;14.00;99.90;;;;;;5016764;28;20428;-80
2021/10/19 12:46:07;;;;;;;1.43;0.77;;;14.10;99.90;;;;;;5017068;28;20439;-80
2021/10/19 12:48:37;;;;;;;0.70;0.53;;;14.30;99.90;;;;;;5016512;28;20849;-81
2021/10/19 12:51:06;;;;;;;1.20;0.67;;;14.40;99.90;;;;;;5017064;28;20443;-80
2021/10/19 12:53:33;;;;;;;1.37;0.70;;;14.50;99.90;;;;;;5016838;28;20471;-80